sensor_id;sensor_type;location;lat;lon;timestamp;P1;durP1;ratioP1;P2;durP2;ratioP2
4268;SDS011;2148;48.554;7.834;2024-03-08T00:00:12;29.87;;;22.07;;
4268;SDS011;2148;48.554;7.834;2024-03-08T00:02:38;28.50;;;22.03;;
4268;SDS011;2148;48.554;7.834;2024-03-08T00:05:04;30.43;;;21.37;;
4268;SDS011;2148;48.554;7.834;2024-03-08T00:07:30;31.03;;;22.73;;
4268;SDS011;2148;48.554;7.834;2024-03-08T00:09:56;31.47;;;22.20;;
4268;SDS011;2148;48.554;7.834;2024-03-08T00:12:21;29.07;;;22.10;;
4268;SDS011;2148;48.554;7.834;2024-03-08T00:14:46;29.97;;;22.17;;
4268;SDS011;2148;48.554;7.834;2024-03-08T00:17:11;27.50;;;20.70;;
4268;SDS011;2148;48.554;7.834;2024-03-08T00:19:37;30.97;;;21.80;;
4268;SDS011;2148;48.554;7.834;2024-03-08T00:22:02;30.10;;;21.70;;
4268;SDS011;2148;48.554;7.834;2024-03-08T00:24:27;26.57;;;20.47;;
4268;SDS011;2148;48.554;7.834;2024-03-08T00:26:53;29.40;;;22.37;;
4268;SDS011;2148;48.554;7.834;2024-03-08T00:29:19;27.70;;;22.37;;
4268;SDS011;2148;48.554;7.834;2024-03-08T00:31:44;27.43;;;22.27;;
4268;SDS011;2148;48.554;7.834;2024-03-08T00:34:09;33.53;;;21.33;;
4268;SDS011;2148;48.554;7.834;2024-03-08T00:36:36;25.93;;;20.70;;
4268;SDS011;2148;48.554;7.834;2024-03-08T00:39:02;29.17;;;21.50;;
4268;SDS011;2148;48.554;7.834;2024-03-08T00:41:31;30.27;;;21.37;;
4268;SDS011;2148;48.554;7.834;2024-03-08T00:43:56;28.37;;;21.63;;
4268;SDS011;2148;48.554;7.834;2024-03-08T00:46:21;28.20;;;21.57;;
4268;SDS011;2148;48.554;7.834;2024-03-08T00:48:47;28.63;;;21.70;;
4268;SDS011;2148;48.554;7.834;2024-03-08T00:51:12;26.30;;;20.87;;
4268;SDS011;2148;48.554;7.834;2024-03-08T00:53:37;30.07;;;20.70;;
4268;SDS011;2148;48.554;7.834;2024-03-08T00:56:03;27.77;;;21.53;;
4268;SDS011;2148;48.554;7.834;2024-03-08T00:58:29;29.83;;;22.37;;
4268;SDS011;2148;48.554;7.834;2024-03-08T01:00:55;31.57;;;22.47;;
4268;SDS011;2148;48.554;7.834;2024-03-08T01:03:22;31.23;;;22.97;;
4268;SDS011;2148;48.554;7.834;2024-03-08T01:05:47;29.40;;;22.80;;
4268;SDS011;2148;48.554;7.834;2024-03-08T01:08:12;30.83;;;22.80;;
4268;SDS011;2148;48.554;7.834;2024-03-08T01:10:37;32.33;;;23.53;;
4268;SDS011;2148;48.554;7.834;2024-03-08T01:13:03;32.50;;;22.80;;
4268;SDS011;2148;48.554;7.834;2024-03-08T01:15:28;32.13;;;23.17;;
4268;SDS011;2148;48.554;7.834;2024-03-08T01:17:53;30.13;;;22.47;;
4268;SDS011;2148;48.554;7.834;2024-03-08T01:20:19;31.83;;;22.83;;
4268;SDS011;2148;48.554;7.834;2024-03-08T01:22:44;29.47;;;21.93;;
4268;SDS011;2148;48.554;7.834;2024-03-08T01:25:09;29.57;;;22.93;;
4268;SDS011;2148;48.554;7.834;2024-03-08T01:27:35;31.17;;;21.87;;
4268;SDS011;2148;48.554;7.834;2024-03-08T01:30:01;30.67;;;22.43;;
4268;SDS011;2148;48.554;7.834;2024-03-08T01:32:27;32.23;;;22.00;;
4268;SDS011;2148;48.554;7.834;2024-03-08T01:34:53;29.53;;;21.30;;
4268;SDS011;2148;48.554;7.834;2024-03-08T01:37:19;28.27;;;21.20;;
4268;SDS011;2148;48.554;7.834;2024-03-08T01:39:44;28.60;;;21.50;;
4268;SDS011;2148;48.554;7.834;2024-03-08T01:42:10;30.27;;;22.30;;
4268;SDS011;2148;48.554;7.834;2024-03-08T01:44:37;28.93;;;21.93;;
4268;SDS011;2148;48.554;7.834;2024-03-08T01:47:03;29.27;;;22.23;;
4268;SDS011;2148;48.554;7.834;2024-03-08T01:49:28;27.80;;;20.37;;
4268;SDS011;2148;48.554;7.834;2024-03-08T01:51:54;29.63;;;23.13;;
4268;SDS011;2148;48.554;7.834;2024-03-08T01:54:21;28.80;;;21.00;;
4268;SDS011;2148;48.554;7.834;2024-03-08T01:56:48;28.00;;;21.70;;
4268;SDS011;2148;48.554;7.834;2024-03-08T01:59:13;30.37;;;22.60;;
4268;SDS011;2148;48.554;7.834;2024-03-08T02:01:39;25.83;;;20.27;;
4268;SDS011;2148;48.554;7.834;2024-03-08T02:04:05;28.43;;;19.73;;
4268;SDS011;2148;48.554;7.834;2024-03-08T02:06:32;26.93;;;20.33;;
4268;SDS011;2148;48.554;7.834;2024-03-08T02:08:57;32.00;;;20.97;;
4268;SDS011;2148;48.554;7.834;2024-03-08T02:11:22;30.93;;;21.60;;
4268;SDS011;2148;48.554;7.834;2024-03-08T02:13:48;25.20;;;19.77;;
4268;SDS011;2148;48.554;7.834;2024-03-08T02:16:19;23.27;;;19.60;;
4268;SDS011;2148;48.554;7.834;2024-03-08T02:18:45;25.70;;;20.20;;
4268;SDS011;2148;48.554;7.834;2024-03-08T02:21:11;26.57;;;20.17;;
4268;SDS011;2148;48.554;7.834;2024-03-08T02:23:37;26.90;;;20.47;;
4268;SDS011;2148;48.554;7.834;2024-03-08T02:26:02;26.70;;;20.20;;
4268;SDS011;2148;48.554;7.834;2024-03-08T02:28:29;25.57;;;20.53;;
4268;SDS011;2148;48.554;7.834;2024-03-08T02:30:55;25.43;;;20.03;;
4268;SDS011;2148;48.554;7.834;2024-03-08T02:33:21;26.20;;;20.13;;
4268;SDS011;2148;48.554;7.834;2024-03-08T02:35:47;27.33;;;20.37;;
4268;SDS011;2148;48.554;7.834;2024-03-08T02:38:14;25.07;;;19.17;;
4268;SDS011;2148;48.554;7.834;2024-03-08T02:40:41;25.83;;;19.83;;
4268;SDS011;2148;48.554;7.834;2024-03-08T02:43:07;25.00;;;18.73;;
4268;SDS011;2148;48.554;7.834;2024-03-08T02:45:32;24.60;;;20.43;;
4268;SDS011;2148;48.554;7.834;2024-03-08T02:47:57;25.20;;;18.87;;
4268;SDS011;2148;48.554;7.834;2024-03-08T02:50:23;26.43;;;18.53;;
4268;SDS011;2148;48.554;7.834;2024-03-08T02:52:48;25.10;;;18.77;;
4268;SDS011;2148;48.554;7.834;2024-03-08T02:55:14;26.43;;;18.13;;
4268;SDS011;2148;48.554;7.834;2024-03-08T02:57:42;25.00;;;19.13;;
4268;SDS011;2148;48.554;7.834;2024-03-08T03:00:08;25.23;;;18.57;;
4268;SDS011;2148;48.554;7.834;2024-03-08T03:02:34;24.80;;;18.90;;
4268;SDS011;2148;48.554;7.834;2024-03-08T03:05:00;25.60;;;19.37;;
4268;SDS011;2148;48.554;7.834;2024-03-08T03:07:30;25.57;;;18.67;;
4268;SDS011;2148;48.554;7.834;2024-03-08T03:09:55;27.90;;;18.97;;
4268;SDS011;2148;48.554;7.834;2024-03-08T03:12:20;23.97;;;17.80;;
4268;SDS011;2148;48.554;7.834;2024-03-08T03:14:46;25.23;;;19.37;;
4268;SDS011;2148;48.554;7.834;2024-03-08T03:17:12;25.17;;;19.27;;
4268;SDS011;2148;48.554;7.834;2024-03-08T03:19:38;26.83;;;20.23;;
4268;SDS011;2148;48.554;7.834;2024-03-08T03:22:05;25.83;;;20.63;;
4268;SDS011;2148;48.554;7.834;2024-03-08T03:24:32;25.30;;;19.13;;
4268;SDS011;2148;48.554;7.834;2024-03-08T03:26:57;25.60;;;18.80;;
4268;SDS011;2148;48.554;7.834;2024-03-08T03:29:24;24.70;;;19.17;;
4268;SDS011;2148;48.554;7.834;2024-03-08T03:31:50;25.40;;;19.73;;
4268;SDS011;2148;48.554;7.834;2024-03-08T03:34:15;23.40;;;18.63;;
4268;SDS011;2148;48.554;7.834;2024-03-08T03:36:41;24.90;;;19.13;;
4268;SDS011;2148;48.554;7.834;2024-03-08T03:39:08;24.70;;;19.13;;
4268;SDS011;2148;48.554;7.834;2024-03-08T03:41:45;25.53;;;19.30;;
4268;SDS011;2148;48.554;7.834;2024-03-08T03:44:11;25.93;;;18.47;;
4268;SDS011;2148;48.554;7.834;2024-03-08T03:46:36;23.13;;;18.73;;
4268;SDS011;2148;48.554;7.834;2024-03-08T03:49:01;23.20;;;18.53;;
4268;SDS011;2148;48.554;7.834;2024-03-08T03:51:28;25.50;;;19.20;;
4268;SDS011;2148;48.554;7.834;2024-03-08T03:53:54;28.63;;;18.67;;
4268;SDS011;2148;48.554;7.834;2024-03-08T03:56:24;24.63;;;19.17;;
4268;SDS011;2148;48.554;7.834;2024-03-08T03:58:50;24.63;;;18.47;;
4268;SDS011;2148;48.554;7.834;2024-03-08T04:01:16;26.30;;;18.63;;
4268;SDS011;2148;48.554;7.834;2024-03-08T04:03:41;25.23;;;17.97;;
4268;SDS011;2148;48.554;7.834;2024-03-08T04:06:08;22.77;;;18.87;;
4268;SDS011;2148;48.554;7.834;2024-03-08T04:08:33;26.33;;;19.37;;
4268;SDS011;2148;48.554;7.834;2024-03-08T04:10:59;24.73;;;19.67;;
4268;SDS011;2148;48.554;7.834;2024-03-08T04:13:25;23.93;;;19.10;;
4268;SDS011;2148;48.554;7.834;2024-03-08T04:15:51;22.83;;;17.90;;
4268;SDS011;2148;48.554;7.834;2024-03-08T04:18:16;22.87;;;18.20;;
4268;SDS011;2148;48.554;7.834;2024-03-08T04:20:43;28.63;;;20.70;;
4268;SDS011;2148;48.554;7.834;2024-03-08T04:23:08;28.00;;;19.93;;
4268;SDS011;2148;48.554;7.834;2024-03-08T04:25:33;26.90;;;20.03;;
4268;SDS011;2148;48.554;7.834;2024-03-08T04:27:59;26.30;;;19.93;;
4268;SDS011;2148;48.554;7.834;2024-03-08T04:30:24;28.00;;;20.73;;
4268;SDS011;2148;48.554;7.834;2024-03-08T04:32:49;23.43;;;19.73;;
4268;SDS011;2148;48.554;7.834;2024-03-08T04:35:15;25.83;;;19.77;;
4268;SDS011;2148;48.554;7.834;2024-03-08T04:37:40;24.87;;;19.47;;
4268;SDS011;2148;48.554;7.834;2024-03-08T04:40:06;26.83;;;21.00;;
4268;SDS011;2148;48.554;7.834;2024-03-08T04:42:32;26.93;;;19.80;;
4268;SDS011;2148;48.554;7.834;2024-03-08T04:45:00;26.43;;;20.57;;
4268;SDS011;2148;48.554;7.834;2024-03-08T04:47:25;27.53;;;21.30;;
4268;SDS011;2148;48.554;7.834;2024-03-08T04:49:50;25.43;;;20.70;;
4268;SDS011;2148;48.554;7.834;2024-03-08T04:52:16;25.80;;;20.30;;
4268;SDS011;2148;48.554;7.834;2024-03-08T04:54:41;26.07;;;19.93;;
4268;SDS011;2148;48.554;7.834;2024-03-08T04:57:07;27.30;;;20.00;;
4268;SDS011;2148;48.554;7.834;2024-03-08T04:59:32;21.87;;;17.87;;
4268;SDS011;2148;48.554;7.834;2024-03-08T05:01:57;22.50;;;18.13;;
4268;SDS011;2148;48.554;7.834;2024-03-08T05:04:23;25.47;;;19.63;;
4268;SDS011;2148;48.554;7.834;2024-03-08T05:06:48;25.53;;;19.53;;
4268;SDS011;2148;48.554;7.834;2024-03-08T05:09:13;23.83;;;19.07;;
4268;SDS011;2148;48.554;7.834;2024-03-08T05:11:40;25.17;;;19.00;;
4268;SDS011;2148;48.554;7.834;2024-03-08T05:14:06;26.20;;;18.87;;
4268;SDS011;2148;48.554;7.834;2024-03-08T05:16:31;23.90;;;18.33;;
4268;SDS011;2148;48.554;7.834;2024-03-08T05:18:56;24.00;;;18.93;;
4268;SDS011;2148;48.554;7.834;2024-03-08T05:21:21;24.03;;;18.73;;
4268;SDS011;2148;48.554;7.834;2024-03-08T05:23:47;24.07;;;18.23;;
4268;SDS011;2148;48.554;7.834;2024-03-08T05:26:12;23.70;;;18.60;;
4268;SDS011;2148;48.554;7.834;2024-03-08T05:28:38;23.50;;;18.13;;
4268;SDS011;2148;48.554;7.834;2024-03-08T05:31:03;23.70;;;18.30;;
4268;SDS011;2148;48.554;7.834;2024-03-08T05:33:28;22.87;;;17.37;;
4268;SDS011;2148;48.554;7.834;2024-03-08T05:35:53;22.33;;;16.57;;
4268;SDS011;2148;48.554;7.834;2024-03-08T05:38:19;25.90;;;18.60;;
4268;SDS011;2148;48.554;7.834;2024-03-08T05:40:45;24.40;;;17.53;;
4268;SDS011;2148;48.554;7.834;2024-03-08T05:43:10;26.23;;;18.40;;
4268;SDS011;2148;48.554;7.834;2024-03-08T05:45:36;25.93;;;18.90;;
4268;SDS011;2148;48.554;7.834;2024-03-08T05:48:02;22.07;;;17.43;;
4268;SDS011;2148;48.554;7.834;2024-03-08T05:50:27;23.03;;;18.33;;
4268;SDS011;2148;48.554;7.834;2024-03-08T05:52:52;22.47;;;17.10;;
4268;SDS011;2148;48.554;7.834;2024-03-08T05:55:17;23.07;;;17.77;;
4268;SDS011;2148;48.554;7.834;2024-03-08T05:57:43;29.47;;;18.10;;
4268;SDS011;2148;48.554;7.834;2024-03-08T06:00:09;23.80;;;18.73;;
4268;SDS011;2148;48.554;7.834;2024-03-08T06:02:36;24.67;;;18.30;;
4268;SDS011;2148;48.554;7.834;2024-03-08T06:05:05;21.67;;;17.30;;
4268;SDS011;2148;48.554;7.834;2024-03-08T06:07:34;22.10;;;17.30;;
4268;SDS011;2148;48.554;7.834;2024-03-08T06:10:00;28.53;;;18.70;;
4268;SDS011;2148;48.554;7.834;2024-03-08T06:12:25;23.43;;;17.87;;
4268;SDS011;2148;48.554;7.834;2024-03-08T06:14:53;24.23;;;18.23;;
4268;SDS011;2148;48.554;7.834;2024-03-08T06:17:19;23.80;;;18.47;;
4268;SDS011;2148;48.554;7.834;2024-03-08T06:19:44;21.67;;;17.23;;
4268;SDS011;2148;48.554;7.834;2024-03-08T06:22:09;23.47;;;17.67;;
4268;SDS011;2148;48.554;7.834;2024-03-08T06:24:35;24.07;;;19.17;;
4268;SDS011;2148;48.554;7.834;2024-03-08T06:27:02;26.57;;;18.97;;
4268;SDS011;2148;48.554;7.834;2024-03-08T06:29:27;21.17;;;17.10;;
4268;SDS011;2148;48.554;7.834;2024-03-08T06:31:53;23.27;;;18.33;;
4268;SDS011;2148;48.554;7.834;2024-03-08T06:34:18;22.03;;;17.67;;
4268;SDS011;2148;48.554;7.834;2024-03-08T06:36:43;25.30;;;19.30;;
4268;SDS011;2148;48.554;7.834;2024-03-08T06:39:09;24.93;;;17.80;;
4268;SDS011;2148;48.554;7.834;2024-03-08T06:41:35;22.23;;;16.60;;
4268;SDS011;2148;48.554;7.834;2024-03-08T06:44:01;26.83;;;17.33;;
4268;SDS011;2148;48.554;7.834;2024-03-08T06:46:26;30.03;;;21.17;;
4268;SDS011;2148;48.554;7.834;2024-03-08T06:48:51;47.43;;;33.77;;
4268;SDS011;2148;48.554;7.834;2024-03-08T06:51:17;29.60;;;22.50;;
4268;SDS011;2148;48.554;7.834;2024-03-08T06:53:43;31.87;;;23.90;;
4268;SDS011;2148;48.554;7.834;2024-03-08T06:56:08;28.80;;;19.53;;
4268;SDS011;2148;48.554;7.834;2024-03-08T06:58:33;25.20;;;19.20;;
4268;SDS011;2148;48.554;7.834;2024-03-08T07:00:58;23.53;;;19.17;;
4268;SDS011;2148;48.554;7.834;2024-03-08T07:03:26;25.13;;;20.57;;
4268;SDS011;2148;48.554;7.834;2024-03-08T07:05:52;23.17;;;17.97;;
4268;SDS011;2148;48.554;7.834;2024-03-08T07:08:17;21.83;;;17.53;;
4268;SDS011;2148;48.554;7.834;2024-03-08T07:10:43;25.43;;;19.07;;
4268;SDS011;2148;48.554;7.834;2024-03-08T07:13:10;21.00;;;17.30;;
4268;SDS011;2148;48.554;7.834;2024-03-08T07:15:35;21.83;;;16.67;;
4268;SDS011;2148;48.554;7.834;2024-03-08T07:18:01;23.67;;;17.30;;
4268;SDS011;2148;48.554;7.834;2024-03-08T07:20:26;24.87;;;19.20;;
4268;SDS011;2148;48.554;7.834;2024-03-08T07:22:53;23.93;;;18.17;;
4268;SDS011;2148;48.554;7.834;2024-03-08T07:25:19;24.77;;;19.87;;
4268;SDS011;2148;48.554;7.834;2024-03-08T07:27:47;26.17;;;19.17;;
4268;SDS011;2148;48.554;7.834;2024-03-08T07:30:13;25.20;;;19.07;;
4268;SDS011;2148;48.554;7.834;2024-03-08T07:32:58;23.57;;;18.03;;
4268;SDS011;2148;48.554;7.834;2024-03-08T07:35:24;23.47;;;18.33;;
4268;SDS011;2148;48.554;7.834;2024-03-08T07:37:51;26.90;;;18.67;;
4268;SDS011;2148;48.554;7.834;2024-03-08T07:40:19;24.63;;;19.13;;
4268;SDS011;2148;48.554;7.834;2024-03-08T07:42:48;23.13;;;17.83;;
4268;SDS011;2148;48.554;7.834;2024-03-08T07:45:14;24.80;;;18.30;;
4268;SDS011;2148;48.554;7.834;2024-03-08T07:47:41;22.47;;;17.30;;
4268;SDS011;2148;48.554;7.834;2024-03-08T07:50:06;22.33;;;16.83;;
4268;SDS011;2148;48.554;7.834;2024-03-08T07:52:33;24.20;;;17.90;;
4268;SDS011;2148;48.554;7.834;2024-03-08T07:55:01;25.27;;;19.93;;
4268;SDS011;2148;48.554;7.834;2024-03-08T07:57:28;25.97;;;18.70;;
4268;SDS011;2148;48.554;7.834;2024-03-08T07:59:54;24.07;;;17.77;;
4268;SDS011;2148;48.554;7.834;2024-03-08T08:02:20;23.17;;;17.87;;
4268;SDS011;2148;48.554;7.834;2024-03-08T08:04:45;26.53;;;19.13;;
4268;SDS011;2148;48.554;7.834;2024-03-08T08:07:11;24.67;;;18.67;;
4268;SDS011;2148;48.554;7.834;2024-03-08T08:09:36;25.23;;;17.57;;
4268;SDS011;2148;48.554;7.834;2024-03-08T08:12:02;22.10;;;17.77;;
4268;SDS011;2148;48.554;7.834;2024-03-08T08:14:28;26.13;;;20.77;;
4268;SDS011;2148;48.554;7.834;2024-03-08T08:16:54;26.27;;;19.70;;
4268;SDS011;2148;48.554;7.834;2024-03-08T08:19:20;27.43;;;19.60;;
4268;SDS011;2148;48.554;7.834;2024-03-08T08:21:46;25.87;;;18.80;;
4268;SDS011;2148;48.554;7.834;2024-03-08T08:24:11;23.93;;;18.30;;
4268;SDS011;2148;48.554;7.834;2024-03-08T08:26:36;23.40;;;17.03;;
4268;SDS011;2148;48.554;7.834;2024-03-08T08:29:02;24.03;;;18.13;;
4268;SDS011;2148;48.554;7.834;2024-03-08T08:31:27;23.90;;;17.70;;
4268;SDS011;2148;48.554;7.834;2024-03-08T08:33:52;26.27;;;18.23;;
4268;SDS011;2148;48.554;7.834;2024-03-08T08:36:26;20.83;;;16.27;;
4268;SDS011;2148;48.554;7.834;2024-03-08T08:38:51;23.20;;;17.80;;
4268;SDS011;2148;48.554;7.834;2024-03-08T08:41:20;23.07;;;17.20;;
4268;SDS011;2148;48.554;7.834;2024-03-08T08:43:46;24.33;;;18.07;;
4268;SDS011;2148;48.554;7.834;2024-03-08T08:46:12;23.73;;;18.50;;
4268;SDS011;2148;48.554;7.834;2024-03-08T08:48:38;22.33;;;16.77;;
4268;SDS011;2148;48.554;7.834;2024-03-08T08:51:06;23.17;;;18.10;;
4268;SDS011;2148;48.554;7.834;2024-03-08T08:53:37;21.70;;;16.53;;
4268;SDS011;2148;48.554;7.834;2024-03-08T08:56:02;19.57;;;15.50;;
4268;SDS011;2148;48.554;7.834;2024-03-08T08:58:28;20.43;;;15.80;;
4268;SDS011;2148;48.554;7.834;2024-03-08T09:00:53;20.40;;;16.13;;
4268;SDS011;2148;48.554;7.834;2024-03-08T09:03:18;22.57;;;17.83;;
4268;SDS011;2148;48.554;7.834;2024-03-08T09:05:44;21.70;;;17.27;;
4268;SDS011;2148;48.554;7.834;2024-03-08T09:08:09;20.73;;;17.00;;
4268;SDS011;2148;48.554;7.834;2024-03-08T09:10:34;18.30;;;15.60;;
4268;SDS011;2148;48.554;7.834;2024-03-08T09:12:59;21.00;;;15.77;;
4268;SDS011;2148;48.554;7.834;2024-03-08T09:15:25;19.57;;;15.77;;
4268;SDS011;2148;48.554;7.834;2024-03-08T09:17:53;22.80;;;17.77;;
4268;SDS011;2148;48.554;7.834;2024-03-08T09:20:19;22.00;;;18.40;;
4268;SDS011;2148;48.554;7.834;2024-03-08T09:22:45;22.40;;;18.27;;
4268;SDS011;2148;48.554;7.834;2024-03-08T09:25:10;19.10;;;16.17;;
4268;SDS011;2148;48.554;7.834;2024-03-08T09:27:36;23.27;;;17.60;;
4268;SDS011;2148;48.554;7.834;2024-03-08T09:30:02;23.53;;;17.87;;
4268;SDS011;2148;48.554;7.834;2024-03-08T09:32:27;19.83;;;16.30;;
4268;SDS011;2148;48.554;7.834;2024-03-08T09:34:53;20.90;;;16.47;;
4268;SDS011;2148;48.554;7.834;2024-03-08T09:37:18;20.73;;;16.50;;
4268;SDS011;2148;48.554;7.834;2024-03-08T09:39:44;18.87;;;16.20;;
4268;SDS011;2148;48.554;7.834;2024-03-08T09:42:09;19.97;;;15.23;;
4268;SDS011;2148;48.554;7.834;2024-03-08T09:44:35;19.07;;;15.20;;
4268;SDS011;2148;48.554;7.834;2024-03-08T09:47:01;18.27;;;15.43;;
4268;SDS011;2148;48.554;7.834;2024-03-08T09:49:29;23.50;;;18.37;;
4268;SDS011;2148;48.554;7.834;2024-03-08T09:51:55;21.13;;;17.10;;
4268;SDS011;2148;48.554;7.834;2024-03-08T09:54:21;16.13;;;12.47;;
4268;SDS011;2148;48.554;7.834;2024-03-08T09:56:47;18.50;;;14.33;;
4268;SDS011;2148;48.554;7.834;2024-03-08T09:59:13;16.17;;;13.27;;
4268;SDS011;2148;48.554;7.834;2024-03-08T10:01:45;20.57;;;16.70;;
4268;SDS011;2148;48.554;7.834;2024-03-08T10:04:11;18.27;;;13.73;;
4268;SDS011;2148;48.554;7.834;2024-03-08T10:06:36;20.60;;;15.70;;
4268;SDS011;2148;48.554;7.834;2024-03-08T10:09:02;18.77;;;15.47;;
4268;SDS011;2148;48.554;7.834;2024-03-08T10:11:27;22.07;;;17.80;;
4268;SDS011;2148;48.554;7.834;2024-03-08T10:13:53;19.63;;;16.33;;
4268;SDS011;2148;48.554;7.834;2024-03-08T10:16:19;20.27;;;17.60;;
4268;SDS011;2148;48.554;7.834;2024-03-08T10:18:44;22.00;;;17.73;;
4268;SDS011;2148;48.554;7.834;2024-03-08T10:21:10;20.93;;;16.00;;
4268;SDS011;2148;48.554;7.834;2024-03-08T10:23:36;21.30;;;17.70;;
4268;SDS011;2148;48.554;7.834;2024-03-08T10:26:11;18.80;;;15.27;;
4268;SDS011;2148;48.554;7.834;2024-03-08T10:28:50;20.03;;;16.30;;
4268;SDS011;2148;48.554;7.834;2024-03-08T10:31:17;20.40;;;15.47;;
4268;SDS011;2148;48.554;7.834;2024-03-08T10:33:44;19.00;;;16.40;;
4268;SDS011;2148;48.554;7.834;2024-03-08T10:36:10;17.63;;;12.60;;
4268;SDS011;2148;48.554;7.834;2024-03-08T10:38:36;21.33;;;16.67;;
4268;SDS011;2148;48.554;7.834;2024-03-08T10:41:02;20.07;;;15.53;;
4268;SDS011;2148;48.554;7.834;2024-03-08T10:43:28;20.97;;;16.40;;
4268;SDS011;2148;48.554;7.834;2024-03-08T10:46:05;17.83;;;14.50;;
4268;SDS011;2148;48.554;7.834;2024-03-08T10:48:43;20.13;;;15.23;;
4268;SDS011;2148;48.554;7.834;2024-03-08T10:51:11;22.43;;;17.10;;
4268;SDS011;2148;48.554;7.834;2024-03-08T10:53:37;22.87;;;17.20;;
4268;SDS011;2148;48.554;7.834;2024-03-08T10:56:06;19.97;;;15.47;;
4268;SDS011;2148;48.554;7.834;2024-03-08T10:58:32;18.87;;;16.23;;
4268;SDS011;2148;48.554;7.834;2024-03-08T11:00:59;17.77;;;15.80;;
4268;SDS011;2148;48.554;7.834;2024-03-08T11:06:05;20.33;;;16.33;;
4268;SDS011;2148;48.554;7.834;2024-03-08T11:08:30;21.03;;;15.67;;
4268;SDS011;2148;48.554;7.834;2024-03-08T11:10:56;23.37;;;14.70;;
4268;SDS011;2148;48.554;7.834;2024-03-08T11:13:37;20.33;;;15.43;;
4268;SDS011;2148;48.554;7.834;2024-03-08T11:18:49;20.80;;;16.10;;
4268;SDS011;2148;48.554;7.834;2024-03-08T11:21:15;18.37;;;15.50;;
4268;SDS011;2148;48.554;7.834;2024-03-08T11:23:42;21.27;;;16.00;;
4268;SDS011;2148;48.554;7.834;2024-03-08T11:26:17;21.50;;;15.23;;
4268;SDS011;2148;48.554;7.834;2024-03-08T11:28:43;20.33;;;15.93;;
4268;SDS011;2148;48.554;7.834;2024-03-08T11:33:34;21.87;;;16.73;;
4268;SDS011;2148;48.554;7.834;2024-03-08T11:38:39;20.23;;;16.80;;
4268;SDS011;2148;48.554;7.834;2024-03-08T11:41:05;19.67;;;16.43;;
4268;SDS011;2148;48.554;7.834;2024-03-08T11:43:30;18.00;;;14.40;;
4268;SDS011;2148;48.554;7.834;2024-03-08T11:46:07;17.93;;;14.33;;
4268;SDS011;2148;48.554;7.834;2024-03-08T11:48:33;19.73;;;17.20;;
4268;SDS011;2148;48.554;7.834;2024-03-08T11:51:00;18.77;;;16.03;;
4268;SDS011;2148;48.554;7.834;2024-03-08T11:53:26;16.53;;;12.77;;
4268;SDS011;2148;48.554;7.834;2024-03-08T11:55:52;18.70;;;14.53;;
4268;SDS011;2148;48.554;7.834;2024-03-08T11:58:17;18.23;;;15.43;;
4268;SDS011;2148;48.554;7.834;2024-03-08T12:00:42;18.13;;;15.23;;
4268;SDS011;2148;48.554;7.834;2024-03-08T12:03:09;16.90;;;14.27;;
4268;SDS011;2148;48.554;7.834;2024-03-08T12:05:35;18.73;;;15.57;;
4268;SDS011;2148;48.554;7.834;2024-03-08T12:08:01;18.00;;;15.27;;
4268;SDS011;2148;48.554;7.834;2024-03-08T12:10:27;17.43;;;14.47;;
4268;SDS011;2148;48.554;7.834;2024-03-08T12:12:53;19.83;;;15.13;;
4268;SDS011;2148;48.554;7.834;2024-03-08T12:15:20;16.97;;;14.80;;
4268;SDS011;2148;48.554;7.834;2024-03-08T12:17:47;16.87;;;13.73;;
4268;SDS011;2148;48.554;7.834;2024-03-08T12:20:16;16.57;;;14.23;;
4268;SDS011;2148;48.554;7.834;2024-03-08T12:22:46;13.70;;;11.87;;
4268;SDS011;2148;48.554;7.834;2024-03-08T12:25:12;15.33;;;12.73;;
4268;SDS011;2148;48.554;7.834;2024-03-08T12:27:41;15.33;;;13.23;;
4268;SDS011;2148;48.554;7.834;2024-03-08T12:30:20;16.67;;;13.40;;
4268;SDS011;2148;48.554;7.834;2024-03-08T12:32:51;16.80;;;13.83;;
4268;SDS011;2148;48.554;7.834;2024-03-08T12:35:19;16.43;;;14.07;;
4268;SDS011;2148;48.554;7.834;2024-03-08T12:37:47;17.70;;;13.73;;
4268;SDS011;2148;48.554;7.834;2024-03-08T12:40:14;15.60;;;14.00;;
4268;SDS011;2148;48.554;7.834;2024-03-08T12:42:41;15.87;;;13.33;;
4268;SDS011;2148;48.554;7.834;2024-03-08T12:45:08;16.50;;;13.43;;
4268;SDS011;2148;48.554;7.834;2024-03-08T12:47:34;17.87;;;14.13;;
4268;SDS011;2148;48.554;7.834;2024-03-08T12:50:00;16.70;;;14.90;;
4268;SDS011;2148;48.554;7.834;2024-03-08T12:52:25;13.90;;;11.20;;
4268;SDS011;2148;48.554;7.834;2024-03-08T12:54:51;15.50;;;13.37;;
4268;SDS011;2148;48.554;7.834;2024-03-08T12:57:16;16.90;;;12.43;;
4268;SDS011;2148;48.554;7.834;2024-03-08T12:59:42;16.70;;;13.63;;
4268;SDS011;2148;48.554;7.834;2024-03-08T13:02:07;15.83;;;13.83;;
4268;SDS011;2148;48.554;7.834;2024-03-08T13:04:36;19.13;;;14.73;;
4268;SDS011;2148;48.554;7.834;2024-03-08T13:07:01;16.57;;;13.47;;
4268;SDS011;2148;48.554;7.834;2024-03-08T13:09:27;16.67;;;13.80;;
4268;SDS011;2148;48.554;7.834;2024-03-08T13:11:52;17.40;;;14.27;;
4268;SDS011;2148;48.554;7.834;2024-03-08T13:14:20;18.00;;;14.67;;
4268;SDS011;2148;48.554;7.834;2024-03-08T13:16:45;17.60;;;13.57;;
4268;SDS011;2148;48.554;7.834;2024-03-08T13:19:13;16.30;;;14.00;;
4268;SDS011;2148;48.554;7.834;2024-03-08T13:21:39;17.03;;;14.30;;
4268;SDS011;2148;48.554;7.834;2024-03-08T13:24:04;17.20;;;13.83;;
4268;SDS011;2148;48.554;7.834;2024-03-08T13:26:30;16.43;;;13.73;;
4268;SDS011;2148;48.554;7.834;2024-03-08T13:28:57;17.83;;;13.80;;
4268;SDS011;2148;48.554;7.834;2024-03-08T13:31:23;16.87;;;14.50;;
4268;SDS011;2148;48.554;7.834;2024-03-08T13:33:48;15.00;;;12.77;;
4268;SDS011;2148;48.554;7.834;2024-03-08T13:36:14;17.07;;;13.70;;
4268;SDS011;2148;48.554;7.834;2024-03-08T13:38:43;15.23;;;13.13;;
4268;SDS011;2148;48.554;7.834;2024-03-08T13:41:10;17.07;;;14.97;;
4268;SDS011;2148;48.554;7.834;2024-03-08T13:43:36;14.50;;;11.53;;
4268;SDS011;2148;48.554;7.834;2024-03-08T13:46:02;15.20;;;12.33;;
4268;SDS011;2148;48.554;7.834;2024-03-08T13:48:28;15.40;;;12.93;;
4268;SDS011;2148;48.554;7.834;2024-03-08T13:50:53;14.90;;;12.47;;
4268;SDS011;2148;48.554;7.834;2024-03-08T13:53:20;16.03;;;13.70;;
4268;SDS011;2148;48.554;7.834;2024-03-08T13:55:45;19.10;;;14.77;;
4268;SDS011;2148;48.554;7.834;2024-03-08T13:58:10;16.93;;;13.57;;
4268;SDS011;2148;48.554;7.834;2024-03-08T14:00:39;19.07;;;15.30;;
4268;SDS011;2148;48.554;7.834;2024-03-08T14:03:06;16.00;;;13.03;;
4268;SDS011;2148;48.554;7.834;2024-03-08T14:05:32;15.90;;;12.10;;
4268;SDS011;2148;48.554;7.834;2024-03-08T14:08:00;16.63;;;12.47;;
4268;SDS011;2148;48.554;7.834;2024-03-08T14:10:28;18.93;;;14.73;;
4268;SDS011;2148;48.554;7.834;2024-03-08T14:12:56;15.20;;;12.33;;
4268;SDS011;2148;48.554;7.834;2024-03-08T14:15:21;18.10;;;12.17;;
4268;SDS011;2148;48.554;7.834;2024-03-08T14:17:52;21.80;;;15.00;;
4268;SDS011;2148;48.554;7.834;2024-03-08T14:20:17;18.20;;;13.10;;
4268;SDS011;2148;48.554;7.834;2024-03-08T14:22:43;16.80;;;12.50;;
4268;SDS011;2148;48.554;7.834;2024-03-08T14:25:08;16.63;;;13.37;;
4268;SDS011;2148;48.554;7.834;2024-03-08T14:27:41;19.30;;;14.90;;
4268;SDS011;2148;48.554;7.834;2024-03-08T14:30:09;19.93;;;15.20;;
4268;SDS011;2148;48.554;7.834;2024-03-08T14:32:35;20.70;;;14.00;;
4268;SDS011;2148;48.554;7.834;2024-03-08T14:35:03;19.63;;;14.17;;
4268;SDS011;2148;48.554;7.834;2024-03-08T14:37:29;17.40;;;11.87;;
4268;SDS011;2148;48.554;7.834;2024-03-08T14:39:54;16.50;;;13.20;;
4268;SDS011;2148;48.554;7.834;2024-03-08T14:42:20;19.80;;;13.63;;
4268;SDS011;2148;48.554;7.834;2024-03-08T14:44:46;15.40;;;13.30;;
4268;SDS011;2148;48.554;7.834;2024-03-08T14:47:16;17.57;;;13.93;;
4268;SDS011;2148;48.554;7.834;2024-03-08T14:49:41;17.10;;;13.43;;
4268;SDS011;2148;48.554;7.834;2024-03-08T14:52:06;16.00;;;13.67;;